Time;durP1;ratioP1;P1;durP2;ratioP2;P2;SDS_P1;SDS_P2;PMS_P1;PMS_P2;Temp;Humidity;BMP_temperature;BMP_pressure;BME280_temperature;BME280_humidity;BME280_pressure;Samples;Min_cycle;Max_cycle;Signal;HPM_P1;HPM_P2
2023/06/11 00:01:26;;;;;;;;;;;18.80;99.90;;;;;;4993081;28;20132;-77
2023/06/11 00:03:52;;;;;;;4.10;2.30;;;18.80;99.90;;;;;;4976445;28;19922;-77
2023/06/11 00:06:21;;;;;;;;;;;18.80;91.60;;;;;;4976981;28;20038;-77
2023/06/11 00:08:51;;;;;;;3.00;2.42;;;18.80;1.00;;;;;;4989463;28;19968;-77
2023/06/11 00:11:17;;;;;;;4.05;2.20;;;18.90;1.00;;;;;;4995924;28;20116;-77
2023/06/11 00:13:43;;;;;;;3.10;1.77;;;18.90;1.00;;;;;;4995442;28;20450;-77
2023/06/11 00:16:11;;;;;;;;;;;18.90;99.90;;;;;;5014121;28;20109;-77
2023/06/11 00:18:40;;;;;;;3.75;2.05;;;18.90;99.90;;;;;;4995599;28;20107;-82
2023/06/11 00:21:07;;;;;;;3.42;1.80;;;19.00;99.90;;;;;;4994192;28;20121;-82
2023/06/11 00:23:36;;;;;;;1.63;1.52;;;18.90;80.50;;;;;;4977422;28;20034;-82
2023/06/11 00:26:05;;;;;;;2.33;1.73;;;18.90;17.50;;;;;;4994064;28;20058;-82
2023/06/11 00:28:30;;;;;;;2.40;1.48;;;18.90;99.90;;;;;;4993788;28;20045;-83
2023/06/11 00:30:56;;;;;;;;;;;18.90;99.90;;;;;;4986781;28;20057;-82
2023/06/11 00:33:21;;;;;;;4.05;1.95;;;18.90;99.90;;;;;;4971460;28;19948;-82
2023/06/11 00:35:47;;;;;;;;;;;18.90;99.90;;;;;;4995565;28;20107;-82
2023/06/11 00:38:13;;;;;;;3.13;1.65;;;18.90;99.90;;;;;;4994325;28;19918;-83
2023/06/11 00:40:38;;;;;;;;;;;18.90;99.90;;;;;;4994746;28;20045;-83
2023/06/11 00:43:04;;;;;;;2.40;1.80;;;18.90;99.90;;;;;;4992621;28;20048;-82
2023/06/11 00:45:32;;;;;;;;;;;18.90;41.50;;;;;;4994251;28;20046;-82
2023/06/11 00:47:57;;;;;;;2.25;1.70;;;18.90;45.30;;;;;;4994330;28;19917;-82
2023/06/11 00:50:23;;;;;;;;;;;18.80;1.00;;;;;;4996323;28;20148;-82
2023/06/11 00:52:49;;;;;;;1.90;1.60;;;18.80;1.00;;;;;;4995713;28;19932;-82
2023/06/11 00:55:14;;;;;;;;;;;18.80;1.00;;;;;;4993626;28;20568;-82
2023/06/11 00:57:41;;;;;;;2.58;1.48;;;18.80;1.00;;;;;;4977685;28;19959;-82
2023/06/11 01:00:12;;;;;;;1.63;1.40;;;18.70;1.00;;;;;;4994603;28;20045;-82
2023/06/11 01:02:59;;;;;;;2.35;1.95;;;18.70;99.90;;;;;;4993993;28;20046;-83
2023/06/11 01:05:26;;;;;;;2.33;1.60;;;18.70;1.00;;;;;;4991985;28;20565;-82
2023/06/11 01:07:55;;;;;;;1.63;1.50;;;18.70;99.90;;;;;;4994046;28;20522;-81
2023/06/11 01:10:21;;;;;;;2.00;1.45;;;18.70;99.90;;;;;;4992516;28;20073;-82
2023/06/11 01:12:47;;;;;;;1.52;1.20;;;18.60;99.90;;;;;;4994996;28;20399;-82
2023/06/11 01:15:14;;;;;;;2.53;1.40;;;18.50;99.90;;;;;;4975695;28;20522;-82
2023/06/11 01:17:54;;;;;;;1.83;1.50;;;18.50;99.90;;;;;;4979176;28;20053;-83
2023/06/11 01:20:35;;;;;;;1.83;1.60;;;18.50;99.90;;;;;;4993573;28;20103;-83
2023/06/11 01:23:23;;;;;;;3.05;1.70;;;18.50;99.90;;;;;;4991868;28;20490;-83
2023/06/11 01:26:07;;;;;;;1.95;1.30;;;18.50;99.90;;;;;;4993515;28;20046;-82
2023/06/11 01:28:37;;;;;;;2.53;1.58;;;18.50;99.90;;;;;;4992158;28;20174;-82
2023/06/11 01:31:15;;;;;;;2.10;1.50;;;18.50;99.90;;;;;;4994076;28;20073;-83
2023/06/11 01:33:44;;;;;;;1.90;1.33;;;18.50;99.90;;;;;;5009363;28;20050;-83
2023/06/11 01:36:10;;;;;;;1.73;1.63;;;18.50;99.90;;;;;;4976663;28;20570;-81
2023/06/11 01:38:44;;;;;;;2.20;1.80;;;18.50;75.20;;;;;;4994029;28;20490;-83
2023/06/11 01:41:14;;;;;;;2.72;1.83;;;18.40;32.80;;;;;;4994483;28;20046;-83
2023/06/11 01:43:43;;;;;;;2.08;1.88;;;18.40;1.00;;;;;;4977870;28;20375;-82
2023/06/11 01:46:08;;;;;;;2.10;1.65;;;18.40;1.00;;;;;;4991279;28;20486;-82
2023/06/11 01:48:35;;;;;;;;;;;18.40;1.00;;;;;;4977289;28;20042;-82
2023/06/11 01:51:01;;;;;;;2.45;2.15;;;18.40;99.90;;;;;;4991912;28;20374;-82
2023/06/11 01:53:27;;;;;;;;;;;18.40;1.00;;;;;;4993474;28;20140;-83
2023/06/11 01:55:54;;;;;;;2.42;2.03;;;18.40;99.90;;;;;;4994405;28;19973;-82
2023/06/11 01:58:23;;;;;;;2.03;1.80;;;18.40;99.90;;;;;;4994597;28;20700;-82
2023/06/11 02:00:49;;;;;;;1.60;1.50;;;18.30;99.90;;;;;;4993787;28;20560;-82
2023/06/11 02:03:18;;;;;;;;;;;18.30;99.90;;;;;;4978534;28;20042;-81
2023/06/11 02:05:44;;;;;;;1.92;1.60;;;18.20;99.90;;;;;;4993931;28;19924;-82
2023/06/11 02:08:10;;;;;;;2.38;1.88;;;18.20;1.00;;;;;;4977838;28;20075;-82
2023/06/11 02:10:36;;;;;;;2.22;1.92;;;18.20;99.90;;;;;;4994044;28;20060;-83
2023/06/11 02:13:01;;;;;;;;;;;18.20;99.90;;;;;;4995090;28;20054;-83
2023/06/11 02:15:27;;;;;;;2.45;2.08;;;18.20;99.90;;;;;;4992936;28;20373;-83
2023/06/11 02:17:53;;;;;;;;;;;18.20;1.00;;;;;;4994743;28;20042;-82
2023/06/11 02:20:19;;;;;;;2.67;2.33;;;18.20;99.90;;;;;;4994342;28;19921;-83
2023/06/11 02:22:44;;;;;;;3.67;2.58;;;18.20;99.90;;;;;;4993942;28;20387;-82
2023/06/11 02:25:10;;;;;;;2.60;2.40;;;18.20;99.90;;;;;;5021970;28;20121;-82
2023/06/11 02:27:35;;;;;;;;;;;18.20;99.90;;;;;;4992935;28;20065;-82
2023/06/11 02:30:01;;;;;;;3.33;2.33;;;18.10;99.90;;;;;;4990138;28;19917;-83
2023/06/11 02:32:27;;;;;;;;;;;18.10;99.90;;;;;;4992277;28;20053;-83
2023/06/11 02:34:52;;;;;;;3.47;2.65;;;18.10;99.90;;;;;;4992330;28;20532;-82
2023/06/11 02:37:18;;;;;;;3.40;2.42;;;18.10;99.90;;;;;;4991163;28;20050;-82
2023/06/11 02:39:44;;;;;;;3.30;2.60;;;18.00;1.00;;;;;;5005810;28;20049;-82
2023/06/11 02:42:09;;;;;;;2.75;2.55;;;18.00;1.00;;;;;;4983762;28;20096;-82
2023/06/11 02:44:35;;;;;;;;;;;18.00;1.00;;;;;;4994034;28;20072;-83
2023/06/11 02:47:01;;;;;;;5.13;3.03;;;18.00;1.00;;;;;;4991102;28;20420;-83
2023/06/11 02:49:27;;;;;;;3.35;2.65;;;17.90;13.20;;;;;;4974652;28;20092;-82
2023/06/11 02:51:52;;;;;;;3.28;2.78;;;17.90;1.00;;;;;;4991009;28;20124;-82
2023/06/11 02:54:18;;;;;;;;;;;17.90;25.90;;;;;;4977228;28;20050;-82
2023/06/11 02:56:44;;;;;;;3.40;2.60;;;17.90;15.90;;;;;;4975194;28;19917;-82
2023/06/11 02:59:09;;;;;;;2.63;2.28;;;17.80;1.00;;;;;;4991735;28;20121;-83
2023/06/11 03:01:35;;;;;;;;;;;17.80;9.60;;;;;;4994656;28;20049;-82
2023/06/11 03:04:01;;;;;;;3.90;2.67;;;17.80;5.90;;;;;;4995330;28;19929;-82
2023/06/11 03:06:26;;;;;;;3.28;2.90;;;17.70;47.20;;;;;;4996040;28;20427;-83
2023/06/11 03:08:53;;;;;;;;;;;17.80;1.00;;;;;;5013211;28;20057;-83
2023/06/11 03:11:19;;;;;;;3.47;3.10;;;17.80;55.90;;;;;;4978952;28;20048;-82
2023/06/11 03:13:44;;;;;;;;;;;17.70;9.20;;;;;;4980048;28;20215;-82
2023/06/11 03:16:10;;;;;;;3.45;3.15;;;17.70;1.00;;;;;;4994930;28;20614;-82
2023/06/11 03:18:36;;;;;;;3.03;2.72;;;17.80;1.00;;;;;;4979504;28;20064;-83
2023/06/11 03:21:02;;;;;;;3.63;3.10;;;17.70;1.00;;;;;;4995493;28;20046;-83
2023/06/11 03:23:28;;;;;;;6.15;2.78;;;17.70;1.00;;;;;;4962450;28;20087;-83
2023/06/11 03:25:54;;;;;;;;;;;17.70;4.90;;;;;;4979463;28;20054;-83
2023/06/11 03:28:19;;;;;;;3.92;3.53;;;17.70;1.00;;;;;;4992860;28;20404;-83
2023/06/11 03:30:45;;;;;;;;;;;17.70;99.90;;;;;;4995239;28;20505;-83
2023/06/11 03:33:10;;;;;;;4.45;3.40;;;17.70;89.00;;;;;;4982777;28;19921;-83
2023/06/11 03:35:36;;;;;;;;;;;17.70;99.90;;;;;;4978872;28;20052;-83
2023/06/11 03:38:02;;;;;;;2.97;2.65;;;17.60;99.90;;;;;;4978308;28;19985;-83
2023/06/11 03:40:28;;;;;;;4.45;3.47;;;17.60;99.90;;;;;;4979665;28;20387;-83
2023/06/11 03:42:54;;;;;;;3.70;3.30;;;17.60;99.90;;;;;;4994588;28;20060;-83
2023/06/11 03:45:19;;;;;;;;;;;17.60;99.90;;;;;;4994835;28;20530;-84
2023/06/11 03:47:45;;;;;;;3.72;3.30;;;17.60;99.90;;;;;;4978949;28;19957;-83
2023/06/11 03:50:12;;;;;;;;;;;17.60;99.90;;;;;;4979608;28;20501;-83
2023/06/11 03:52:37;;;;;;;3.53;3.23;;;17.50;99.90;;;;;;4994369;28;19971;-83
2023/06/11 03:55:03;;;;;;;;;;;17.50;99.90;;;;;;4978651;28;20038;-83
2023/06/11 03:57:29;;;;;;;3.80;3.20;;;17.50;99.90;;;;;;4994008;28;19921;-84
2023/06/11 03:59:57;;;;;;;3.85;3.47;;;17.50;99.90;;;;;;4962784;28;20053;-84
2023/06/11 04:02:23;;;;;;;3.80;3.38;;;17.50;1.00;;;;;;4977346;28;20100;-84
2023/06/11 04:04:48;;;;;;;;;;;17.50;1.00;;;;;;4976280;28;20043;-84
2023/06/11 04:07:14;;;;;;;3.90;3.50;;;17.40;1.00;;;;;;4994683;28;19949;-84
2023/06/11 04:09:40;;;;;;;;;;;17.50;4.20;;;;;;4979995;28;20045;-84
2023/06/11 04:12:06;;;;;;;4.03;3.63;;;17.40;1.00;;;;;;4995784;28;19971;-84
2023/06/11 04:14:32;;;;;;;4.50;3.88;;;17.50;1.00;;;;;;4995803;28;20482;-84
2023/06/11 04:16:58;;;;;;;;;;;17.50;1.00;;;;;;4979827;28;20092;-84
2023/06/11 04:19:23;;;;;;;4.10;3.67;;;17.50;29.50;;;;;;4995111;28;20370;-83
2023/06/11 04:21:49;;;;;;;;;;;17.50;30.60;;;;;;4994915;28;20380;-84
2023/06/11 04:24:15;;;;;;;3.58;3.28;;;17.50;6.50;;;;;;4978452;28;20023;-84
2023/06/11 04:26:43;;;;;;;3.50;3.20;;;17.50;14.30;;;;;;4977201;28;20061;-84
2023/06/11 04:29:08;;;;;;;4.15;3.75;;;17.50;1.00;;;;;;4965015;28;20088;-84
2023/06/11 04:31:34;;;;;;;;;;;17.50;1.00;;;;;;4993857;28;20077;-84
2023/06/11 04:34:03;;;;;;;5.85;3.70;;;17.50;1.00;;;;;;4978452;28;19917;-84
2023/06/11 04:36:29;;;;;;;5.85;3.60;;;17.60;1.00;;;;;;4992983;28;20053;-84
2023/06/11 04:38:55;;;;;;;3.67;3.30;;;17.60;1.00;;;;;;4993881;28;20046;-84
2023/06/11 04:41:23;;;;;;;;;;;17.60;1.00;;;;;;4994149;28;20046;-84
2023/06/11 04:43:49;;;;;;;4.88;3.95;;;17.70;1.00;;;;;;4995069;28;19936;-84
2023/06/11 04:46:15;;;;;;;4.38;3.85;;;17.70;1.00;;;;;;4960514;28;20089;-84
2023/06/11 04:48:41;;;;;;;;;;;17.80;99.90;;;;;;4979265;28;20034;-84
2023/06/11 04:51:07;;;;;;;4.97;3.78;;;17.90;99.90;;;;;;4960214;28;19943;-84
2023/06/11 04:53:37;;;;;;;4.68;3.90;;;17.90;99.90;;;;;;4976990;28;20045;-84
2023/06/11 04:56:03;;;;;;;4.38;3.92;;;17.90;99.90;;;;;;4993734;28;20461;-84
2023/06/11 04:58:29;;;;;;;;;;;18.00;99.90;;;;;;4976606;28;20180;-84
2023/06/11 05:00:58;;;;;;;4.25;3.85;;;18.00;99.90;;;;;;4976635;28;19980;-83
2023/06/11 05:03:26;;;;;;;6.28;4.00;;;18.10;99.90;;;;;;4993197;28;20509;-84
2023/06/11 05:05:53;;;;;;;4.68;4.20;;;18.10;94.30;;;;;;4994093;28;20482;-84
2023/06/11 05:08:20;;;;;;;5.78;4.03;;;18.20;1.00;;;;;;4991707;28;20099;-84
2023/06/11 05:10:46;;;;;;;4.35;3.92;;;18.30;1.00;;;;;;4993431;28;20041;-84
2023/06/11 05:13:11;;;;;;;;;;;18.30;1.00;;;;;;4977591;28;20403;-84
2023/06/11 05:15:37;;;;;;;7.25;5.03;;;18.40;99.90;;;;;;4977333;28;19971;-84
2023/06/11 05:18:03;;;;;;;6.32;4.80;;;18.50;99.90;;;;;;4994574;28;20041;-84
2023/06/11 05:20:29;;;;;;;4.50;4.10;;;18.50;99.90;;;;;;4993281;28;20041;-82
2023/06/11 05:22:58;;;;;;;;;;;18.60;99.90;;;;;;4975887;28;20038;-84
2023/06/11 05:25:31;;;;;;;5.40;4.55;;;18.60;63.60;;;;;;4992172;28;19932;-83
2023/06/11 05:28:01;;;;;;;5.72;4.22;;;18.70;99.90;;;;;;4991779;28;20053;-83
2023/06/11 05:30:29;;;;;;;5.68;4.63;;;18.70;69.80;;;;;;4994034;28;20046;-81
2023/06/11 05:32:56;;;;;;;5.85;4.60;;;18.80;1.00;;;;;;4977673;28;20088;-83
2023/06/11 05:35:25;;;;;;;5.25;4.45;;;18.90;36.60;;;;;;4992033;28;20133;-84
2023/06/11 05:37:52;;;;;;;7.15;4.82;;;18.90;1.00;;;;;;4992754;28;20045;-83
2023/06/11 05:40:21;;;;;;;5.82;4.70;;;19.00;1.00;;;;;;4991155;28;20454;-83
2023/06/11 05:42:47;;;;;;;6.38;4.53;;;19.10;1.00;;;;;;4976718;28;20042;-83
2023/06/11 05:45:13;;;;;;;;;;;19.10;1.00;;;;;;4960929;28;20501;-82
2023/06/11 05:47:38;;;;;;;5.85;4.03;;;19.20;1.00;;;;;;4977387;28;19957;-82
2023/06/11 05:50:04;;;;;;;;;;;19.30;99.90;;;;;;4994926;28;20380;-83
2023/06/11 05:52:30;;;;;;;5.75;4.75;;;19.40;99.90;;;;;;4976912;28;19924;-80
2023/06/11 05:54:56;;;;;;;;;;;19.40;99.90;;;;;;4963503;28;20057;-83
2023/06/11 05:57:23;;;;;;;5.32;4.18;;;19.50;99.90;;;;;;4992518;28;20351;-84
2023/06/11 05:59:49;;;;;;;4.25;3.85;;;19.60;99.90;;;;;;4992396;28;20061;-84
2023/06/11 06:02:15;;;;;;;4.22;3.83;;;19.70;99.90;;;;;;4990897;28;20050;-82
2023/06/11 06:04:40;;;;;;;;;;;19.70;99.90;;;;;;4995365;28;20045;-83
2023/06/11 06:07:06;;;;;;;5.55;4.22;;;19.80;99.90;;;;;;4977628;28;19964;-83
2023/06/11 06:09:33;;;;;;;4.80;3.90;;;19.90;96.50;;;;;;4977521;28;20470;-83
2023/06/11 06:12:00;;;;;;;4.15;3.25;;;20.00;89.00;;;;;;4977837;28;20041;-82
2023/06/11 06:14:26;;;;;;;3.72;3.30;;;20.10;99.90;;;;;;4994690;28;20073;-81
2023/06/11 06:16:52;;;;;;;4.82;3.88;;;20.10;84.40;;;;;;4960262;28;20472;-83
2023/06/11 06:19:18;;;;;;;4.05;3.40;;;20.20;1.00;;;;;;4994374;28;20048;-84
2023/06/11 06:21:43;;;;;;;;;;;20.30;43.70;;;;;;4962175;28;20473;-83
2023/06/11 06:24:11;;;;;;;5.38;3.28;;;20.40;68.20;;;;;;4976779;28;20407;-82
2023/06/11 06:26:40;;;;;;;4.60;3.83;;;20.40;94.50;;;;;;4977788;28;20061;-83
2023/06/11 06:29:14;;;;;;;4.10;3.70;;;20.50;1.00;;;;;;4993916;28;20038;-83
2023/06/11 06:31:42;;;;;;;3.70;3.40;;;20.50;15.30;;;;;;4947973;28;20053;-83
2023/06/11 06:34:09;;;;;;;4.93;3.92;;;20.50;1.60;;;;;;4994840;28;20160;-82
2023/06/11 06:36:38;;;;;;;4.22;3.42;;;20.70;1.00;;;;;;4990945;28;20041;-83
2023/06/11 06:39:05;;;;;;;4.00;3.58;;;20.80;1.00;;;;;;5010281;28;20046;-82
2023/06/11 06:41:30;;;;;;;4.05;3.50;;;20.90;1.00;;;;;;4993113;28;20049;-82
2023/06/11 06:43:56;;;;;;;3.67;3.28;;;20.90;1.00;;;;;;4975230;28;20046;-83
2023/06/11 06:46:22;;;;;;;4.55;3.10;;;21.10;1.00;;;;;;4978428;28;20060;-84
2023/06/11 06:48:47;;;;;;;4.03;3.63;;;21.20;99.90;;;;;;4985578;28;20042;-84
2023/06/11 06:51:16;;;;;;;4.60;3.22;;;21.30;99.90;;;;;;4997688;28;20044;-83
2023/06/11 06:53:42;;;;;;;3.97;3.60;;;21.40;99.90;;;;;;4985686;28;20052;-82
2023/06/11 06:56:08;;;;;;;3.47;3.17;;;21.50;99.90;;;;;;4978401;28;20041;-84
2023/06/11 06:58:34;;;;;;;5.15;3.55;;;21.60;99.90;;;;;;4972145;28;20081;-83
2023/06/11 07:01:00;;;;;;;3.60;3.30;;;21.70;99.90;;;;;;4977137;28;20077;-81
2023/06/11 07:03:25;;;;;;;5.82;3.70;;;21.80;99.90;;;;;;4977173;28;20042;-84
2023/06/11 07:05:51;;;;;;;5.40;4.13;;;21.90;99.90;;;;;;4992024;28;20121;-84
2023/06/11 07:08:18;;;;;;;4.13;3.72;;;22.00;99.90;;;;;;4991423;28;20038;-83
2023/06/11 07:10:53;;;;;;;4.63;3.60;;;22.10;99.90;;;;;;4943608;28;20040;-82
2023/06/11 07:13:20;;;;;;;5.10;4.35;;;22.20;99.90;;;;;;4978406;28;20053;-84
2023/06/11 07:15:46;;;;;;;4.10;3.65;;;22.20;99.90;;;;;;4992681;28;20034;-83
2023/06/11 07:18:14;;;;;;;4.38;3.90;;;22.40;99.90;;;;;;5008717;28;20221;-82
2023/06/11 07:20:39;;;;;;;4.13;3.60;;;22.50;99.90;;;;;;4993693;28;20141;-84
2023/06/11 07:23:11;;;;;;;3.75;3.30;;;22.70;99.90;;;;;;4990519;28;20092;-84
2023/06/11 07:25:37;;;;;;;3.40;3.10;;;22.80;99.90;;;;;;4993257;28;20597;-84
2023/06/11 07:28:04;;;;;;;4.63;3.78;;;22.90;99.90;;;;;;4978963;28;20084;-83
2023/06/11 07:30:32;;;;;;;6.28;4.15;;;23.00;52.90;;;;;;4992800;28;20081;-83
2023/06/11 07:32:59;;;;;;;5.38;3.80;;;23.00;8.30;;;;;;4992154;28;20046;-84
2023/06/11 07:35:25;;;;;;;4.72;3.72;;;23.00;12.90;;;;;;4979114;28;20038;-84
2023/06/11 07:37:52;;;;;;;3.58;3.13;;;23.10;47.20;;;;;;4993016;28;20046;-84
2023/06/11 07:40:18;;;;;;;3.65;3.22;;;23.30;99.90;;;;;;4993648;28;20045;-83
2023/06/11 07:42:46;;;;;;;3.65;3.30;;;23.40;47.30;;;;;;4977362;28;20145;-85
2023/06/11 07:45:12;;;;;;;3.97;3.40;;;23.50;83.30;;;;;;4976848;28;20065;-85
2023/06/11 07:47:38;;;;;;;3.63;3.30;;;23.60;40.80;;;;;;4999315;28;20116;-84
2023/06/11 07:50:05;;;;;;;3.42;3.13;;;23.80;1.80;;;;;;4999907;28;20096;-84
2023/06/11 07:52:31;;;;;;;3.63;3.03;;;23.90;1.00;;;;;;4998159;28;20061;-85
2023/06/11 07:54:59;;;;;;;3.67;3.33;;;24.10;1.00;;;;;;4998821;28;20049;-84
2023/06/11 07:57:25;;;;;;;4.90;3.38;;;24.10;1.00;;;;;;4996594;28;20041;-85
2023/06/11 07:59:51;;;;;;;3.50;3.17;;;24.30;1.00;;;;;;4960205;28;20488;-85
2023/06/11 08:02:18;;;;;;;2.83;2.63;;;24.40;1.00;;;;;;4977176;28;20635;-85
2023/06/11 08:04:43;;;;;;;4.28;2.92;;;24.50;1.00;;;;;;4977239;28;20046;-85
2023/06/11 08:07:10;;;;;;;4.88;3.80;;;24.70;1.00;;;;;;4972026;28;20854;-85
2023/06/11 08:09:37;;;;;;;3.95;3.30;;;24.70;99.90;;;;;;4995039;28;20478;-82
2023/06/11 08:12:06;;;;;;;3.25;2.95;;;24.80;1.00;;;;;;4996023;28;20450;-85
2023/06/11 08:14:33;;;;;;;4.28;3.40;;;24.90;1.00;;;;;;4993996;28;20050;-83
2023/06/11 08:16:59;;;;;;;3.55;3.22;;;25.00;99.90;;;;;;4995057;28;20049;-83
2023/06/11 08:19:25;;;;;;;2.80;2.60;;;25.10;99.90;;;;;;4994229;28;20045;-83
2023/06/11 08:21:51;;;;;;;3.30;3.00;;;25.30;99.90;;;;;;4994086;28;20078;-83
2023/06/11 08:24:18;;;;;;;3.85;2.95;;;25.50;99.90;;;;;;4994468;28;20092;-83
2023/06/11 08:26:44;;;;;;;3.85;3.15;;;25.60;99.90;;;;;;4986390;28;20065;-83
2023/06/11 08:29:10;;;;;;;3.13;2.83;;;25.90;99.90;;;;;;4955920;28;20049;-85
2023/06/11 08:31:36;;;;;;;3.33;3.03;;;25.80;99.90;;;;;;4954296;28;20046;-84
2023/06/11 08:34:02;;;;;;;2.60;2.30;;;25.90;99.90;;;;;;4968516;28;20506;-84
2023/06/11 08:36:27;;;;;;;4.28;3.47;;;26.10;99.90;;;;;;4965374;28;20136;-85
2023/06/11 08:38:53;;;;;;;3.75;3.38;;;26.20;99.90;;;;;;4957222;28;20104;-85
2023/06/11 08:41:19;;;;;;;3.92;3.30;;;26.20;99.90;;;;;;4956659;28;20511;-84
2023/06/11 08:43:45;;;;;;;4.40;3.50;;;26.40;99.90;;;;;;4968454;28;20038;-84
2023/06/11 08:46:15;;;;;;;3.20;2.90;;;26.50;99.90;;;;;;4953985;28;20479;-84
2023/06/11 08:48:45;;;;;;;4.18;3.20;;;26.70;99.90;;;;;;4969935;28;20042;-84
2023/06/11 08:51:13;;;;;;;3.30;3.00;;;26.80;99.90;;;;;;4960484;28;20129;-84
2023/06/11 08:53:40;;;;;;;3.10;2.80;;;27.10;99.90;;;;;;4953189;28;20042;-84
2023/06/11 08:56:06;;;;;;;3.05;2.75;;;27.20;99.90;;;;;;4975941;28;20113;-82
2023/06/11 08:58:34;;;;;;;5.53;3.15;;;27.30;99.90;;;;;;4971632;28;20441;-82
2023/06/11 09:01:12;;;;;;;3.40;2.72;;;27.40;99.90;;;;;;4953104;28;20046;-80
2023/06/11 09:03:38;;;;;;;3.55;3.15;;;27.40;99.90;;;;;;4970754;28;20120;-84
2023/06/11 09:06:04;;;;;;;3.83;3.40;;;27.40;99.90;;;;;;4973955;28;20045;-85
2023/06/11 09:08:30;;;;;;;3.83;3.25;;;27.40;99.90;;;;;;4939300;28;20465;-85
2023/06/11 09:10:56;;;;;;;3.92;3.38;;;27.50;99.90;;;;;;4956231;28;20064;-87
2023/06/11 09:13:29;;;;;;;3.53;3.00;;;27.70;99.90;;;;;;4973309;28;20121;-84
2023/06/11 09:15:55;;;;;;;2.90;2.55;;;27.80;93.50;;;;;;4954923;28;20379;-85
2023/06/11 09:18:26;;;;;;;2.65;2.45;;;27.90;99.90;;;;;;4973758;28;20046;-85
2023/06/11 09:20:53;;;;;;;3.95;2.85;;;28.20;99.90;;;;;;4975277;28;20041;-86
2023/06/11 09:23:30;;;;;;;3.65;2.90;;;28.30;96.60;;;;;;4956702;28;20100;-86
2023/06/11 09:25:56;;;;;;;3.45;2.97;;;28.40;88.60;;;;;;4963861;28;20060;-86
2023/06/11 09:28:35;;;;;;;3.28;2.92;;;28.50;55.00;;;;;;4976223;28;20053;-86
2023/06/11 09:31:02;;;;;;;3.78;2.70;;;28.70;65.40;;;;;;5004374;28;20439;-86
2023/06/11 09:33:30;;;;;;;3.22;2.92;;;28.90;37.80;;;;;;4961443;28;20491;-87
2023/06/11 09:35:57;;;;;;;2.90;2.70;;;28.80;26.40;;;;;;4987508;28;20495;-85
2023/06/11 09:38:23;;;;;;;3.15;2.85;;;28.80;8.70;;;;;;4975873;28;20037;-84
2023/06/11 09:40:50;;;;;;;3.85;3.45;;;28.80;1.00;;;;;;4976445;28;20376;-85
2023/06/11 09:43:29;;;;;;;3.78;3.05;;;28.60;1.00;;;;;;4996227;28;20038;-86
2023/06/11 09:45:55;;;;;;;3.25;2.95;;;28.70;29.20;;;;;;4977615;28;20332;-87
2023/06/11 09:48:24;;;;;;;2.55;2.35;;;28.80;35.60;;;;;;4979036;28;20045;-85
2023/06/11 09:50:52;;;;;;;2.53;2.33;;;29.00;23.20;;;;;;4979223;28;20152;-87
2023/06/11 09:53:19;;;;;;;3.25;2.78;;;29.30;65.00;;;;;;4980272;28;20049;-86
2023/06/11 09:55:50;;;;;;;2.85;2.60;;;29.40;1.00;;;;;;4962956;28;20038;-84
2023/06/11 09:58:22;;;;;;;3.92;2.80;;;29.40;1.00;;;;;;4966392;28;20160;-85
2023/06/11 10:00:58;;;;;;;3.83;3.00;;;29.50;1.00;;;;;;4998099;28;20107;-86
2023/06/11 10:03:24;;;;;;;4.43;3.30;;;29.50;1.00;;;;;;5000028;28;20049;-87
2023/06/11 10:05:50;;;;;;;3.13;2.83;;;29.40;1.00;;;;;;4980352;28;20042;-86
2023/06/11 10:08:27;;;;;;;3.58;2.60;;;29.50;1.00;;;;;;4994772;28;20092;-85
2023/06/11 10:10:58;;;;;;;2.70;2.50;;;29.60;1.00;;;;;;5000231;28;20033;-86
2023/06/11 10:13:55;;;;;;;3.08;2.60;;;29.60;1.00;;;;;;4993544;28;20034;-86
2023/06/11 10:16:21;;;;;;;3.03;2.72;;;29.90;1.00;;;;;;4980936;28;20461;-85
2023/06/11 10:18:48;;;;;;;4.30;2.88;;;29.90;1.00;;;;;;4975805;28;20125;-86
2023/06/11 10:21:14;;;;;;;3.13;2.55;;;30.00;1.00;;;;;;4971840;28;20474;-86
2023/06/11 10:23:41;;;;;;;4.78;2.38;;;30.20;1.00;;;;;;4976115;28;20034;-86
2023/06/11 10:26:09;;;;;;;2.92;2.40;;;30.40;1.00;;;;;;4999364;28;20050;-85
2023/06/11 10:28:42;;;;;;;2.97;2.50;;;30.40;1.00;;;;;;4976144;28;20490;-86
2023/06/11 10:31:08;;;;;;;2.95;2.42;;;30.50;1.00;;;;;;4985381;28;20045;-87
2023/06/11 10:34:04;;;;;;;4.05;2.55;;;30.60;1.00;;;;;;4988323;28;20068;-84
2023/06/11 10:36:37;;;;;;;2.77;2.40;;;30.60;1.00;;;;;;4985700;28;20065;-85
2023/06/11 10:39:05;;;;;;;2.60;2.40;;;30.60;99.90;;;;;;4991666;28;20820;-85
2023/06/11 10:41:30;;;;;;;2.63;2.42;;;30.50;99.90;;;;;;4992649;28;20511;-85
2023/06/11 10:43:57;;;;;;;2.30;2.10;;;30.70;1.00;;;;;;4993407;28;20109;-85
2023/06/11 10:46:23;;;;;;;2.53;2.33;;;30.80;99.90;;;;;;4961156;28;20418;-82
2023/06/11 10:48:51;;;;;;;2.80;2.35;;;30.90;99.90;;;;;;4959880;28;20041;-81
2023/06/11 10:51:21;;;;;;;3.22;2.53;;;30.90;99.90;;;;;;4990952;28;20088;-82
2023/06/11 10:53:55;;;;;;;3.15;2.38;;;31.00;99.90;;;;;;4975412;28;20124;-83
2023/06/11 10:56:23;;;;;;;2.58;2.38;;;31.00;99.90;;;;;;4992647;28;20054;-83
2023/06/11 10:58:53;;;;;;;2.83;2.40;;;31.00;99.90;;;;;;4990747;28;20542;-83
2023/06/11 11:01:20;;;;;;;3.05;2.72;;;31.00;99.90;;;;;;4974736;28;20499;-83
2023/06/11 11:03:47;;;;;;;2.72;2.50;;;31.00;99.90;;;;;;4992492;28;20069;-83
2023/06/11 11:06:28;;;;;;;2.35;2.08;;;31.10;99.90;;;;;;4976690;28;20423;-83
2023/06/11 11:08:55;;;;;;;3.03;2.50;;;31.30;99.90;;;;;;4976703;28;20034;-83
2023/06/11 11:11:22;;;;;;;3.53;2.30;;;31.30;99.90;;;;;;4976581;28;20057;-83
2023/06/11 11:13:48;;;;;;;2.60;2.40;;;31.40;99.90;;;;;;4992387;28;20052;-83
2023/06/11 11:16:14;;;;;;;2.50;2.30;;;31.50;99.90;;;;;;4977992;28;20499;-83
2023/06/11 11:18:40;;;;;;;2.70;2.33;;;31.70;99.90;;;;;;4976323;28;20108;-83
2023/06/11 11:21:06;;;;;;;2.20;2.00;;;31.60;99.90;;;;;;4995010;28;20081;-83
2023/06/11 11:23:32;;;;;;;3.15;2.17;;;31.70;99.90;;;;;;4988273;28;20045;-84
2023/06/11 11:25:58;;;;;;;2.67;2.35;;;31.60;99.90;;;;;;4988509;28;20061;-83
2023/06/11 11:28:24;;;;;;;2.10;1.90;;;31.60;99.90;;;;;;4956948;28;20038;-85
2023/06/11 11:30:51;;;;;;;2.50;2.30;;;31.60;99.90;;;;;;4980171;28;20391;-87
2023/06/11 11:33:17;;;;;;;3.22;2.20;;;31.80;99.90;;;;;;5011909;28;20040;-85
2023/06/11 11:35:53;;;;;;;2.33;2.13;;;31.80;99.90;;;;;;4973921;28;20216;-82
2023/06/11 11:38:19;;;;;;;2.70;2.40;;;31.80;99.90;;;;;;4990352;28;20038;-84
2023/06/11 11:40:45;;;;;;;2.95;2.65;;;31.80;99.90;;;;;;4971612;28;20483;-82
2023/06/11 11:43:15;;;;;;;2.83;2.42;;;31.80;99.90;;;;;;5003027;28;20569;-84
2023/06/11 11:45:47;;;;;;;2.55;2.30;;;31.70;99.90;;;;;;4961386;28;20409;-85
2023/06/11 11:48:15;;;;;;;3.67;2.38;;;31.80;99.90;;;;;;5003970;28;20109;-84
2023/06/11 11:50:41;;;;;;;3.03;2.33;;;31.80;99.90;;;;;;4962449;28;20483;-85
2023/06/11 11:53:14;;;;;;;2.58;2.28;;;31.90;99.90;;;;;;4976068;28;20137;-85
2023/06/11 11:55:45;;;;;;;2.58;2.00;;;31.90;99.90;;;;;;4975948;28;20041;-84
2023/06/11 11:58:15;;;;;;;2.50;2.30;;;31.90;99.90;;;;;;4995929;28;20042;-85
2023/06/11 12:00:52;;;;;;;2.10;1.90;;;32.00;99.90;;;;;;4941448;28;20081;-84
2023/06/11 12:03:20;;;;;;;3.00;2.10;;;32.30;99.90;;;;;;4987394;28;20058;-84
2023/06/11 12:05:59;;;;;;;3.75;2.35;;;32.40;99.90;;;;;;4992241;28;20042;-82
2023/06/11 12:08:29;;;;;;;4.57;2.42;;;32.30;99.90;;;;;;4959566;28;20050;-84
2023/06/11 12:10:56;;;;;;;3.63;2.60;;;32.20;99.90;;;;;;4986575;28;20022;-84
2023/06/11 12:13:22;;;;;;;2.28;2.03;;;32.40;99.90;;;;;;4980237;28;20046;-85
2023/06/11 12:15:48;;;;;;;2.72;2.53;;;32.30;99.90;;;;;;4994970;28;20041;-84
2023/06/11 12:18:14;;;;;;;2.65;2.38;;;32.30;99.90;;;;;;4962457;28;20053;-83
2023/06/11 12:20:40;;;;;;;2.78;2.47;;;32.30;99.90;;;;;;4960339;28;20038;-82
2023/06/11 12:23:07;;;;;;;2.72;2.42;;;32.10;99.90;;;;;;4960787;28;20438;-83
2023/06/11 12:25:33;;;;;;;4.38;2.30;;;31.70;99.90;;;;;;4961321;28;20152;-84
2023/06/11 12:28:00;;;;;;;2.33;2.13;;;31.30;99.90;;;;;;4961182;28;20049;-84
2023/06/11 12:30:26;;;;;;;2.75;2.45;;;31.30;99.90;;;;;;4960393;28;20060;-82
2023/06/11 12:32:52;;;;;;;3.78;2.65;;;31.40;99.90;;;;;;4960248;28;20129;-85
2023/06/11 12:35:18;;;;;;;2.97;2.00;;;31.60;99.90;;;;;;4972397;28;20038;-84
2023/06/11 12:37:45;;;;;;;4.13;2.58;;;31.80;99.90;;;;;;4950511;28;20094;-84
2023/06/11 12:40:12;;;;;;;2.60;2.40;;;32.10;99.90;;;;;;4920090;28;20088;-83
2023/06/11 12:42:38;;;;;;;3.08;2.53;;;32.10;99.90;;;;;;4955089;28;20178;-85
2023/06/11 12:45:04;;;;;;;2.40;2.20;;;32.30;99.90;;;;;;4938510;28;20417;-84
2023/06/11 12:47:30;;;;;;;2.78;2.00;;;32.50;99.90;;;;;;4946769;28;20555;-84
2023/06/11 12:49:56;;;;;;;3.22;2.10;;;32.70;99.90;;;;;;4971653;28;20121;-84
2023/06/11 12:52:23;;;;;;;2.88;2.20;;;33.00;99.90;;;;;;4960266;28;20050;-86
2023/06/11 12:54:48;;;;;;;2.75;2.10;;;33.20;99.90;;;;;;4970103;28;20043;-85
2023/06/11 12:57:17;;;;;;;2.25;2.05;;;33.30;99.90;;;;;;4941236;28;20082;-84
2023/06/11 12:59:43;;;;;;;3.05;2.75;;;33.50;99.90;;;;;;4968119;28;20053;-84
2023/06/11 13:02:10;;;;;;;2.55;2.35;;;33.30;99.90;;;;;;4949246;28;20039;-83